sensor_id;sensor_type;location;lat;lon;timestamp;temperature;humidity
6355;DHT22;3210;48.708;9.030;2023-03-31T00:02:21;9.50;1.00
6355;DHT22;3210;48.708;9.030;2023-03-31T00:04:48;9.50;1.00
6355;DHT22;3210;48.708;9.030;2023-03-31T00:07:18;9.50;1.00
6355;DHT22;3210;48.708;9.030;2023-03-31T00:09:46;9.40;1.00
6355;DHT22;3210;48.708;9.030;2023-03-31T00:12:14;9.50;1.00
6355;DHT22;3210;48.708;9.030;2023-03-31T00:14:43;9.40;1.00
6355;DHT22;3210;48.708;9.030;2023-03-31T00:17:10;9.40;1.00
6355;DHT22;3210;48.708;9.030;2023-03-31T00:19:37;9.50;1.00
6355;DHT22;3210;48.708;9.030;2023-03-31T00:22:04;9.50;1.00
6355;DHT22;3210;48.708;9.030;2023-03-31T00:24:32;9.50;1.00
6355;DHT22;3210;48.708;9.030;2023-03-31T00:26:59;9.40;1.00
6355;DHT22;3210;48.708;9.030;2023-03-31T00:29:29;9.40;1.00
6355;DHT22;3210;48.708;9.030;2023-03-31T00:31:59;9.50;1.00
6355;DHT22;3210;48.708;9.030;2023-03-31T00:34:26;9.40;1.00
6355;DHT22;3210;48.708;9.030;2023-03-31T00:36:54;9.40;1.00
6355;DHT22;3210;48.708;9.030;2023-03-31T00:39:27;9.50;1.00
6355;DHT22;3210;48.708;9.030;2023-03-31T00:41:56;9.60;1.00
6355;DHT22;3210;48.708;9.030;2023-03-31T00:44:24;9.50;1.00
6355;DHT22;3210;48.708;9.030;2023-03-31T00:46:52;9.40;1.00
6355;DHT22;3210;48.708;9.030;2023-03-31T00:49:26;9.50;1.00
6355;DHT22;3210;48.708;9.030;2023-03-31T00:51:58;9.60;1.00
6355;DHT22;3210;48.708;9.030;2023-03-31T00:54:27;9.60;1.00
6355;DHT22;3210;48.708;9.030;2023-03-31T00:56:56;9.60;1.00
6355;DHT22;3210;48.708;9.030;2023-03-31T00:59:29;9.60;1.00
6355;DHT22;3210;48.708;9.030;2023-03-31T01:01:58;9.60;1.00
6355;DHT22;3210;48.708;9.030;2023-03-31T01:04:31;9.60;1.00
6355;DHT22;3210;48.708;9.030;2023-03-31T01:07:04;9.70;1.00
6355;DHT22;3210;48.708;9.030;2023-03-31T01:09:33;9.70;1.00
6355;DHT22;3210;48.708;9.030;2023-03-31T01:12:05;9.90;1.00
6355;DHT22;3210;48.708;9.030;2023-03-31T01:14:33;9.90;1.00
6355;DHT22;3210;48.708;9.030;2023-03-31T01:17:00;9.80;1.00
6355;DHT22;3210;48.708;9.030;2023-03-31T01:19:35;9.90;1.00
6355;DHT22;3210;48.708;9.030;2023-03-31T01:25:29;9.80;1.00
6355;DHT22;3210;48.708;9.030;2023-03-31T01:28:04;9.80;1.00
6355;DHT22;3210;48.708;9.030;2023-03-31T01:31:10;9.80;1.00
6355;DHT22;3210;48.708;9.030;2023-03-31T01:37:21;9.80;1.00
6355;DHT22;3210;48.708;9.030;2023-03-31T01:42:48;9.90;1.00
6355;DHT22;3210;48.708;9.030;2023-03-31T01:45:24;10.00;1.00
6355;DHT22;3210;48.708;9.030;2023-03-31T01:47:55;10.00;1.00
6355;DHT22;3210;48.708;9.030;2023-03-31T01:50:27;10.00;1.00
6355;DHT22;3210;48.708;9.030;2023-03-31T01:52:59;9.90;1.00
6355;DHT22;3210;48.708;9.030;2023-03-31T01:55:33;9.90;1.00
6355;DHT22;3210;48.708;9.030;2023-03-31T01:58:06;9.80;1.00
6355;DHT22;3210;48.708;9.030;2023-03-31T02:00:39;9.90;1.00
6355;DHT22;3210;48.708;9.030;2023-03-31T02:03:10;9.90;7.60
6355;DHT22;3210;48.708;9.030;2023-03-31T02:05:45;9.80;1.00
6355;DHT22;3210;48.708;9.030;2023-03-31T02:08:15;9.80;1.00
6355;DHT22;3210;48.708;9.030;2023-03-31T02:10:48;9.80;1.00
6355;DHT22;3210;48.708;9.030;2023-03-31T02:13:17;9.70;3.30
6355;DHT22;3210;48.708;9.030;2023-03-31T02:15:48;9.80;4.80
6355;DHT22;3210;48.708;9.030;2023-03-31T02:18:19;9.80;9.80
6355;DHT22;3210;48.708;9.030;2023-03-31T02:20:52;9.70;12.90
6355;DHT22;3210;48.708;9.030;2023-03-31T02:23:24;9.80;12.30
6355;DHT22;3210;48.708;9.030;2023-03-31T02:25:59;9.70;13.30
6355;DHT22;3210;48.708;9.030;2023-03-31T02:28:28;9.70;17.50
6355;DHT22;3210;48.708;9.030;2023-03-31T02:31:06;9.70;20.20
6355;DHT22;3210;48.708;9.030;2023-03-31T02:33:35;9.60;33.30
6355;DHT22;3210;48.708;9.030;2023-03-31T02:36:02;9.50;37.00
6355;DHT22;3210;48.708;9.030;2023-03-31T02:38:31;9.50;45.10
6355;DHT22;3210;48.708;9.030;2023-03-31T02:41:00;9.50;47.30
6355;DHT22;3210;48.708;9.030;2023-03-31T02:43:27;9.50;44.40
6355;DHT22;3210;48.708;9.030;2023-03-31T02:45:54;9.50;41.10
6355;DHT22;3210;48.708;9.030;2023-03-31T02:48:24;9.50;46.80
6355;DHT22;3210;48.708;9.030;2023-03-31T02:51:13;9.50;49.30
6355;DHT22;3210;48.708;9.030;2023-03-31T02:53:56;9.50;43.20
6355;DHT22;3210;48.708;9.030;2023-03-31T02:56:42;9.50;47.30
6355;DHT22;3210;48.708;9.030;2023-03-31T02:59:18;9.50;46.30
6355;DHT22;3210;48.708;9.030;2023-03-31T03:02:01;9.40;46.50
6355;DHT22;3210;48.708;9.030;2023-03-31T03:04:42;9.50;48.70
6355;DHT22;3210;48.708;9.030;2023-03-31T03:07:19;9.50;38.00
6355;DHT22;3210;48.708;9.030;2023-03-31T03:09:56;9.40;43.10
6355;DHT22;3210;48.708;9.030;2023-03-31T03:12:31;9.30;44.20
6355;DHT22;3210;48.708;9.030;2023-03-31T03:15:01;9.20;49.00
6355;DHT22;3210;48.708;9.030;2023-03-31T03:17:34;9.10;60.20
6355;DHT22;3210;48.708;9.030;2023-03-31T03:20:04;9.00;81.20
6355;DHT22;3210;48.708;9.030;2023-03-31T03:22:33;8.90;97.70
6355;DHT22;3210;48.708;9.030;2023-03-31T03:25:00;8.90;99.70
6355;DHT22;3210;48.708;9.030;2023-03-31T03:27:28;8.90;99.90
6355;DHT22;3210;48.708;9.030;2023-03-31T03:29:55;8.80;99.90
6355;DHT22;3210;48.708;9.030;2023-03-31T03:32:21;8.70;99.90
6355;DHT22;3210;48.708;9.030;2023-03-31T03:34:48;8.70;99.90
6355;DHT22;3210;48.708;9.030;2023-03-31T03:37:15;8.80;99.90
6355;DHT22;3210;48.708;9.030;2023-03-31T03:39:42;8.90;99.90
6355;DHT22;3210;48.708;9.030;2023-03-31T03:42:09;9.00;99.90
6355;DHT22;3210;48.708;9.030;2023-03-31T03:44:37;8.90;99.90
6355;DHT22;3210;48.708;9.030;2023-03-31T03:47:04;8.90;99.90
6355;DHT22;3210;48.708;9.030;2023-03-31T03:49:31;8.90;99.90
6355;DHT22;3210;48.708;9.030;2023-03-31T03:51:57;9.00;99.90
6355;DHT22;3210;48.708;9.030;2023-03-31T03:54:24;9.10;99.90
6355;DHT22;3210;48.708;9.030;2023-03-31T03:56:51;9.00;99.90
6355;DHT22;3210;48.708;9.030;2023-03-31T03:59:18;9.00;99.90
6355;DHT22;3210;48.708;9.030;2023-03-31T04:01:46;9.10;99.90
6355;DHT22;3210;48.708;9.030;2023-03-31T04:04:13;9.10;99.90
6355;DHT22;3210;48.708;9.030;2023-03-31T04:06:40;8.90;99.90
6355;DHT22;3210;48.708;9.030;2023-03-31T04:09:07;8.70;99.90
6355;DHT22;3210;48.708;9.030;2023-03-31T04:11:34;8.70;99.90
6355;DHT22;3210;48.708;9.030;2023-03-31T04:14:01;8.60;99.90
6355;DHT22;3210;48.708;9.030;2023-03-31T04:16:28;8.50;99.90
6355;DHT22;3210;48.708;9.030;2023-03-31T04:18:56;8.50;99.90
6355;DHT22;3210;48.708;9.030;2023-03-31T04:21:23;8.60;99.90
6355;DHT22;3210;48.708;9.030;2023-03-31T04:23:52;8.60;99.90
6355;DHT22;3210;48.708;9.030;2023-03-31T04:26:24;8.50;99.90
6355;DHT22;3210;48.708;9.030;2023-03-31T04:28:55;8.50;99.90
6355;DHT22;3210;48.708;9.030;2023-03-31T04:31:23;8.60;99.90
6355;DHT22;3210;48.708;9.030;2023-03-31T04:33:50;8.60;99.90
6355;DHT22;3210;48.708;9.030;2023-03-31T04:36:19;8.40;99.90
6355;DHT22;3210;48.708;9.030;2023-03-31T04:38:47;8.40;99.90
6355;DHT22;3210;48.708;9.030;2023-03-31T04:41:15;8.40;99.90
6355;DHT22;3210;48.708;9.030;2023-03-31T04:43:42;8.40;99.90
6355;DHT22;3210;48.708;9.030;2023-03-31T04:46:09;8.50;99.90
6355;DHT22;3210;48.708;9.030;2023-03-31T04:48:36;8.40;99.90
6355;DHT22;3210;48.708;9.030;2023-03-31T04:51:03;8.40;99.90
6355;DHT22;3210;48.708;9.030;2023-03-31T04:53:31;8.50;99.90
6355;DHT22;3210;48.708;9.030;2023-03-31T04:55:58;8.50;99.90
6355;DHT22;3210;48.708;9.030;2023-03-31T04:58:25;8.60;99.90
6355;DHT22;3210;48.708;9.030;2023-03-31T05:00:52;8.70;99.90
6355;DHT22;3210;48.708;9.030;2023-03-31T05:03:19;8.70;99.90
6355;DHT22;3210;48.708;9.030;2023-03-31T05:05:46;8.60;99.90
6355;DHT22;3210;48.708;9.030;2023-03-31T05:08:12;8.90;99.90
6355;DHT22;3210;48.708;9.030;2023-03-31T05:10:41;8.90;99.90
6355;DHT22;3210;48.708;9.030;2023-03-31T05:13:08;8.90;99.90
6355;DHT22;3210;48.708;9.030;2023-03-31T05:15:36;8.90;99.90
6355;DHT22;3210;48.708;9.030;2023-03-31T05:18:04;8.90;99.90
6355;DHT22;3210;48.708;9.030;2023-03-31T05:20:31;8.90;99.90
6355;DHT22;3210;48.708;9.030;2023-03-31T05:22:57;8.80;99.90
6355;DHT22;3210;48.708;9.030;2023-03-31T05:25:24;8.80;99.90
6355;DHT22;3210;48.708;9.030;2023-03-31T05:27:58;8.90;99.90
6355;DHT22;3210;48.708;9.030;2023-03-31T05:30:25;8.80;99.90
6355;DHT22;3210;48.708;9.030;2023-03-31T05:32:52;8.70;99.90
6355;DHT22;3210;48.708;9.030;2023-03-31T05:35:19;8.70;1.00
6355;DHT22;3210;48.708;9.030;2023-03-31T05:37:46;8.70;1.00
6355;DHT22;3210;48.708;9.030;2023-03-31T05:40:13;8.80;1.00
6355;DHT22;3210;48.708;9.030;2023-03-31T05:42:40;8.80;1.00
6355;DHT22;3210;48.708;9.030;2023-03-31T05:45:09;8.80;1.00
6355;DHT22;3210;48.708;9.030;2023-03-31T05:47:36;8.80;1.00
6355;DHT22;3210;48.708;9.030;2023-03-31T05:50:04;8.70;1.00
6355;DHT22;3210;48.708;9.030;2023-03-31T05:52:33;8.70;1.00
6355;DHT22;3210;48.708;9.030;2023-03-31T05:55:01;8.70;1.00
6355;DHT22;3210;48.708;9.030;2023-03-31T05:57:27;8.70;1.00
6355;DHT22;3210;48.708;9.030;2023-03-31T05:59:54;8.60;1.00
6355;DHT22;3210;48.708;9.030;2023-03-31T06:02:23;8.50;1.00
6355;DHT22;3210;48.708;9.030;2023-03-31T06:04:49;8.50;1.00
6355;DHT22;3210;48.708;9.030;2023-03-31T06:07:16;8.50;57.20
6355;DHT22;3210;48.708;9.030;2023-03-31T06:09:44;8.50;99.90
6355;DHT22;3210;48.708;9.030;2023-03-31T06:12:11;8.40;99.90
6355;DHT22;3210;48.708;9.030;2023-03-31T06:14:38;8.40;99.90
6355;DHT22;3210;48.708;9.030;2023-03-31T06:17:05;8.40;99.90
6355;DHT22;3210;48.708;9.030;2023-03-31T06:19:33;8.40;99.90
6355;DHT22;3210;48.708;9.030;2023-03-31T06:22:00;8.40;99.90
6355;DHT22;3210;48.708;9.030;2023-03-31T06:24:27;8.40;99.90
6355;DHT22;3210;48.708;9.030;2023-03-31T06:26:54;8.40;99.90
6355;DHT22;3210;48.708;9.030;2023-03-31T06:29:21;8.40;99.90
6355;DHT22;3210;48.708;9.030;2023-03-31T06:31:47;8.40;1.00
6355;DHT22;3210;48.708;9.030;2023-03-31T06:34:14;8.50;99.90
6355;DHT22;3210;48.708;9.030;2023-03-31T06:36:42;8.60;99.90
6355;DHT22;3210;48.708;9.030;2023-03-31T06:39:09;8.70;99.90
6355;DHT22;3210;48.708;9.030;2023-03-31T06:41:36;8.70;99.90
6355;DHT22;3210;48.708;9.030;2023-03-31T06:44:03;8.70;99.90
6355;DHT22;3210;48.708;9.030;2023-03-31T06:46:30;8.80;99.90
6355;DHT22;3210;48.708;9.030;2023-03-31T06:48:57;8.80;99.90
6355;DHT22;3210;48.708;9.030;2023-03-31T06:51:23;8.80;99.90
6355;DHT22;3210;48.708;9.030;2023-03-31T06:53:52;8.90;99.90
6355;DHT22;3210;48.708;9.030;2023-03-31T06:56:18;8.90;99.90
6355;DHT22;3210;48.708;9.030;2023-03-31T06:58:46;9.00;42.90
6355;DHT22;3210;48.708;9.030;2023-03-31T07:01:13;9.00;29.90
6355;DHT22;3210;48.708;9.030;2023-03-31T07:03:40;8.90;10.70
6355;DHT22;3210;48.708;9.030;2023-03-31T07:06:06;9.00;92.60
6355;DHT22;3210;48.708;9.030;2023-03-31T07:08:33;8.90;78.70
6355;DHT22;3210;48.708;9.030;2023-03-31T07:11:02;8.90;1.00
6355;DHT22;3210;48.708;9.030;2023-03-31T07:13:28;8.90;1.00
6355;DHT22;3210;48.708;9.030;2023-03-31T07:15:55;8.90;1.00
6355;DHT22;3210;48.708;9.030;2023-03-31T07:18:23;9.00;1.00
6355;DHT22;3210;48.708;9.030;2023-03-31T07:20:56;9.00;1.00
6355;DHT22;3210;48.708;9.030;2023-03-31T07:23:23;9.00;1.00
6355;DHT22;3210;48.708;9.030;2023-03-31T07:25:50;8.90;1.00
6355;DHT22;3210;48.708;9.030;2023-03-31T07:28:18;8.90;1.00
6355;DHT22;3210;48.708;9.030;2023-03-31T07:30:45;9.00;1.00
6355;DHT22;3210;48.708;9.030;2023-03-31T07:33:12;9.10;99.90
6355;DHT22;3210;48.708;9.030;2023-03-31T07:35:39;9.10;99.90
6355;DHT22;3210;48.708;9.030;2023-03-31T07:38:07;9.20;99.90
6355;DHT22;3210;48.708;9.030;2023-03-31T07:40:35;9.40;99.90
6355;DHT22;3210;48.708;9.030;2023-03-31T07:43:02;9.60;99.90
6355;DHT22;3210;48.708;9.030;2023-03-31T07:45:31;9.80;99.90
6355;DHT22;3210;48.708;9.030;2023-03-31T07:47:58;9.80;99.90
6355;DHT22;3210;48.708;9.030;2023-03-31T07:50:25;9.80;99.90
6355;DHT22;3210;48.708;9.030;2023-03-31T07:52:52;9.70;99.90
6355;DHT22;3210;48.708;9.030;2023-03-31T07:55:19;9.80;99.90
6355;DHT22;3210;48.708;9.030;2023-03-31T07:57:45;9.80;99.90
6355;DHT22;3210;48.708;9.030;2023-03-31T08:00:14;9.70;99.90
6355;DHT22;3210;48.708;9.030;2023-03-31T08:02:42;9.90;99.90
6355;DHT22;3210;48.708;9.030;2023-03-31T08:05:10;10.10;99.90
6355;DHT22;3210;48.708;9.030;2023-03-31T08:07:39;10.20;99.90
6355;DHT22;3210;48.708;9.030;2023-03-31T08:10:08;10.30;99.90
6355;DHT22;3210;48.708;9.030;2023-03-31T08:12:35;10.40;99.90
6355;DHT22;3210;48.708;9.030;2023-03-31T08:15:02;10.50;99.90
6355;DHT22;3210;48.708;9.030;2023-03-31T08:17:29;10.70;99.90
6355;DHT22;3210;48.708;9.030;2023-03-31T08:19:57;10.80;99.90
6355;DHT22;3210;48.708;9.030;2023-03-31T08:22:24;10.90;99.90
6355;DHT22;3210;48.708;9.030;2023-03-31T08:24:51;11.00;99.90
6355;DHT22;3210;48.708;9.030;2023-03-31T08:27:18;11.20;99.90
6355;DHT22;3210;48.708;9.030;2023-03-31T08:29:45;11.30;99.90
6355;DHT22;3210;48.708;9.030;2023-03-31T08:32:12;11.30;99.90
6355;DHT22;3210;48.708;9.030;2023-03-31T08:34:39;11.40;99.90
6355;DHT22;3210;48.708;9.030;2023-03-31T08:37:08;11.60;99.90
6355;DHT22;3210;48.708;9.030;2023-03-31T08:39:35;11.60;99.90
6355;DHT22;3210;48.708;9.030;2023-03-31T08:42:06;11.70;99.90
6355;DHT22;3210;48.708;9.030;2023-03-31T08:44:40;11.80;99.90
6355;DHT22;3210;48.708;9.030;2023-03-31T08:47:13;11.90;98.60
6355;DHT22;3210;48.708;9.030;2023-03-31T08:49:43;11.90;98.80
6355;DHT22;3210;48.708;9.030;2023-03-31T08:52:14;12.00;92.50
6355;DHT22;3210;48.708;9.030;2023-03-31T08:54:47;12.10;95.60
6355;DHT22;3210;48.708;9.030;2023-03-31T08:57:18;12.30;61.80
6355;DHT22;3210;48.708;9.030;2023-03-31T08:59:46;12.30;57.60
6355;DHT22;3210;48.708;9.030;2023-03-31T09:02:20;12.30;47.80
6355;DHT22;3210;48.708;9.030;2023-03-31T09:05:04;12.40;39.60
6355;DHT22;3210;48.708;9.030;2023-03-31T09:07:45;12.50;19.90
6355;DHT22;3210;48.708;9.030;2023-03-31T09:10:27;12.50;15.00
6355;DHT22;3210;48.708;9.030;2023-03-31T09:13:04;12.50;16.50
6355;DHT22;3210;48.708;9.030;2023-03-31T09:15:37;12.70;8.00
6355;DHT22;3210;48.708;9.030;2023-03-31T09:18:10;12.90;4.30
6355;DHT22;3210;48.708;9.030;2023-03-31T09:20:42;13.00;1.00
6355;DHT22;3210;48.708;9.030;2023-03-31T09:23:24;12.90;5.60
6355;DHT22;3210;48.708;9.030;2023-03-31T09:25:54;12.80;1.00
6355;DHT22;3210;48.708;9.030;2023-03-31T09:28:27;12.80;1.00
6355;DHT22;3210;48.708;9.030;2023-03-31T09:30:56;12.60;1.00
6355;DHT22;3210;48.708;9.030;2023-03-31T09:33:26;12.50;1.00
6355;DHT22;3210;48.708;9.030;2023-03-31T09:35:56;12.40;1.00
6355;DHT22;3210;48.708;9.030;2023-03-31T09:38:25;12.30;1.00
6355;DHT22;3210;48.708;9.030;2023-03-31T09:40:56;12.10;1.00
6355;DHT22;3210;48.708;9.030;2023-03-31T09:43:25;12.10;1.00
6355;DHT22;3210;48.708;9.030;2023-03-31T09:45:52;12.20;1.00
6355;DHT22;3210;48.708;9.030;2023-03-31T09:48:22;12.40;1.00
6355;DHT22;3210;48.708;9.030;2023-03-31T09:50:54;12.60;1.00
6355;DHT22;3210;48.708;9.030;2023-03-31T09:53:31;12.80;1.00
6355;DHT22;3210;48.708;9.030;2023-03-31T09:56:01;13.00;1.00
6355;DHT22;3210;48.708;9.030;2023-03-31T09:58:28;13.10;1.00
6355;DHT22;3210;48.708;9.030;2023-03-31T10:01:00;13.10;1.00
6355;DHT22;3210;48.708;9.030;2023-03-31T10:03:28;13.20;1.00
6355;DHT22;3210;48.708;9.030;2023-03-31T10:06:01;13.40;1.00
6355;DHT22;3210;48.708;9.030;2023-03-31T10:08:37;13.30;1.00
6355;DHT22;3210;48.708;9.030;2023-03-31T10:11:09;13.20;1.00
6355;DHT22;3210;48.708;9.030;2023-03-31T10:13:42;13.30;1.00
6355;DHT22;3210;48.708;9.030;2023-03-31T10:16:13;13.60;1.00
6355;DHT22;3210;48.708;9.030;2023-03-31T10:18:42;13.80;1.00
6355;DHT22;3210;48.708;9.030;2023-03-31T10:21:19;13.70;1.00
6355;DHT22;3210;48.708;9.030;2023-03-31T10:23:49;13.50;1.00
6355;DHT22;3210;48.708;9.030;2023-03-31T10:26:18;13.50;1.00
6355;DHT22;3210;48.708;9.030;2023-03-31T10:28:47;13.70;1.00
6355;DHT22;3210;48.708;9.030;2023-03-31T10:31:15;13.80;1.00
6355;DHT22;3210;48.708;9.030;2023-03-31T10:33:44;13.90;1.00
6355;DHT22;3210;48.708;9.030;2023-03-31T10:36:18;13.80;1.00
6355;DHT22;3210;48.708;9.030;2023-03-31T10:38:49;13.80;1.00
6355;DHT22;3210;48.708;9.030;2023-03-31T10:41:18;14.00;1.00
6355;DHT22;3210;48.708;9.030;2023-03-31T10:43:49;14.00;1.00
6355;DHT22;3210;48.708;9.030;2023-03-31T10:46:17;13.90;1.00
6355;DHT22;3210;48.708;9.030;2023-03-31T10:48:44;14.00;1.00
6355;DHT22;3210;48.708;9.030;2023-03-31T10:51:14;14.50;1.00
6355;DHT22;3210;48.708;9.030;2023-03-31T10:53:43;14.90;1.00
6355;DHT22;3210;48.708;9.030;2023-03-31T10:56:35;14.90;1.00
6355;DHT22;3210;48.708;9.030;2023-03-31T10:59:23;14.90;1.00
6355;DHT22;3210;48.708;9.030;2023-03-31T11:02:03;14.70;1.00
6355;DHT22;3210;48.708;9.030;2023-03-31T11:04:55;14.70;1.00
6355;DHT22;3210;48.708;9.030;2023-03-31T11:07:40;14.80;1.00
6355;DHT22;3210;48.708;9.030;2023-03-31T11:10:23;14.50;1.00
6355;DHT22;3210;48.708;9.030;2023-03-31T11:12:55;14.10;1.00
6355;DHT22;3210;48.708;9.030;2023-03-31T11:15:28;13.70;1.00
6355;DHT22;3210;48.708;9.030;2023-03-31T11:18:17;12.90;1.00
6355;DHT22;3210;48.708;9.030;2023-03-31T11:20:55;11.40;1.00
6355;DHT22;3210;48.708;9.030;2023-03-31T11:23:38;10.10;1.00
6355;DHT22;3210;48.708;9.030;2023-03-31T11:26:09;9.30;11.60
6355;DHT22;3210;48.708;9.030;2023-03-31T11:28:57;9.20;53.40
6355;DHT22;3210;48.708;9.030;2023-03-31T11:31:32;9.10;29.40
6355;DHT22;3210;48.708;9.030;2023-03-31T11:34:13;8.90;90.00
6355;DHT22;3210;48.708;9.030;2023-03-31T11:37:10;8.80;69.50
6355;DHT22;3210;48.708;9.030;2023-03-31T11:39:50;8.80;71.70
6355;DHT22;3210;48.708;9.030;2023-03-31T11:42:20;8.80;58.30
6355;DHT22;3210;48.708;9.030;2023-03-31T11:44:55;8.80;63.30
6355;DHT22;3210;48.708;9.030;2023-03-31T11:47:25;8.80;66.60
6355;DHT22;3210;48.708;9.030;2023-03-31T11:49:56;9.10;49.30
6355;DHT22;3210;48.708;9.030;2023-03-31T11:52:26;9.20;54.00
6355;DHT22;3210;48.708;9.030;2023-03-31T11:54:57;9.40;79.80
6355;DHT22;3210;48.708;9.030;2023-03-31T11:57:29;9.80;78.40
6355;DHT22;3210;48.708;9.030;2023-03-31T12:00:04;10.30;58.40
6355;DHT22;3210;48.708;9.030;2023-03-31T12:02:39;10.70;45.40
6355;DHT22;3210;48.708;9.030;2023-03-31T12:05:11;10.90;33.20
6355;DHT22;3210;48.708;9.030;2023-03-31T12:07:40;11.10;29.40
6355;DHT22;3210;48.708;9.030;2023-03-31T12:10:17;11.20;23.00
6355;DHT22;3210;48.708;9.030;2023-03-31T12:12:47;11.10;1.00
6355;DHT22;3210;48.708;9.030;2023-03-31T12:15:21;11.00;1.00
6355;DHT22;3210;48.708;9.030;2023-03-31T12:17:54;11.00;1.00
6355;DHT22;3210;48.708;9.030;2023-03-31T12:20:28;11.10;1.00
6355;DHT22;3210;48.708;9.030;2023-03-31T12:22:57;11.40;1.00
6355;DHT22;3210;48.708;9.030;2023-03-31T12:25:27;11.50;1.00
6355;DHT22;3210;48.708;9.030;2023-03-31T12:27:56;11.80;1.00
6355;DHT22;3210;48.708;9.030;2023-03-31T12:30:29;12.00;1.00
6355;DHT22;3210;48.708;9.030;2023-03-31T12:33:03;12.10;1.00
6355;DHT22;3210;48.708;9.030;2023-03-31T12:35:37;12.20;1.00
6355;DHT22;3210;48.708;9.030;2023-03-31T12:38:18;12.30;1.00
6355;DHT22;3210;48.708;9.030;2023-03-31T12:41:00;12.40;1.00
6355;DHT22;3210;48.708;9.030;2023-03-31T12:43:49;12.50;1.00
6355;DHT22;3210;48.708;9.030;2023-03-31T12:49:22;12.70;1.00
6355;DHT22;3210;48.708;9.030;2023-03-31T12:51:59;12.80;1.00
6355;DHT22;3210;48.708;9.030;2023-03-31T12:54:56;12.70;1.00
6355;DHT22;3210;48.708;9.030;2023-03-31T12:57:25;12.80;1.00
6355;DHT22;3210;48.708;9.030;2023-03-31T13:00:21;12.90;1.00
6355;DHT22;3210;48.708;9.030;2023-03-31T13:02:50;12.80;1.00
6355;DHT22;3210;48.708;9.030;2023-03-31T13:05:57;12.90;1.00
6355;DHT22;3210;48.708;9.030;2023-03-31T13:08:54;12.90;1.00
6355;DHT22;3210;48.708;9.030;2023-03-31T13:11:22;12.70;1.00
6355;DHT22;3210;48.708;9.030;2023-03-31T13:14:02;12.60;1.00
6355;DHT22;3210;48.708;9.030;2023-03-31T13:16:30;12.60;1.00
6355;DHT22;3210;48.708;9.030;2023-03-31T13:18:59;12.20;1.00
6355;DHT22;3210;48.708;9.030;2023-03-31T13:21:26;11.90;1.00
6355;DHT22;3210;48.708;9.030;2023-03-31T13:23:58;11.60;1.00
6355;DHT22;3210;48.708;9.030;2023-03-31T13:26:40;11.10;1.00
6355;DHT22;3210;48.708;9.030;2023-03-31T13:29:19;10.70;1.00
6355;DHT22;3210;48.708;9.030;2023-03-31T13:32:20;10.40;1.00
6355;DHT22;3210;48.708;9.030;2023-03-31T13:34:58;10.30;11.00
6355;DHT22;3210;48.708;9.030;2023-03-31T13:37:49;10.10;12.40
6355;DHT22;3210;48.708;9.030;2023-03-31T13:43:48;9.40;30.10
6355;DHT22;3210;48.708;9.030;2023-03-31T13:46:48;9.10;32.00
6355;DHT22;3210;48.708;9.030;2023-03-31T13:49:47;8.90;66.60
6355;DHT22;3210;48.708;9.030;2023-03-31T13:52:19;8.80;99.90
6355;DHT22;3210;48.708;9.030;2023-03-31T13:55:05;8.60;90.70
6355;DHT22;3210;48.708;9.030;2023-03-31T13:58:03;8.50;99.90
6355;DHT22;3210;48.708;9.030;2023-03-31T14:00:41;8.50;99.90
6355;DHT22;3210;48.708;9.030;2023-03-31T14:03:27;8.60;99.90
6355;DHT22;3210;48.708;9.030;2023-03-31T14:05:58;8.90;99.90
6355;DHT22;3210;48.708;9.030;2023-03-31T14:08:38;9.30;99.90
6355;DHT22;3210;48.708;9.030;2023-03-31T14:11:16;9.80;99.90
6355;DHT22;3210;48.708;9.030;2023-03-31T14:13:43;10.20;97.10
6355;DHT22;3210;48.708;9.030;2023-03-31T14:16:09;10.40;81.30
6355;DHT22;3210;48.708;9.030;2023-03-31T14:18:41;10.50;58.90
6355;DHT22;3210;48.708;9.030;2023-03-31T14:21:18;10.50;51.10
6355;DHT22;3210;48.708;9.030;2023-03-31T14:24:09;10.60;45.80
6355;DHT22;3210;48.708;9.030;2023-03-31T14:26:56;10.70;41.00
6355;DHT22;3210;48.708;9.030;2023-03-31T14:29:32;10.40;17.10
6355;DHT22;3210;48.708;9.030;2023-03-31T14:32:12;10.30;27.30
6355;DHT22;3210;48.708;9.030;2023-03-31T14:34:52;10.40;22.90
6355;DHT22;3210;48.708;9.030;2023-03-31T14:37:22;10.60;22.40
6355;DHT22;3210;48.708;9.030;2023-03-31T14:39:52;10.70;16.40
6355;DHT22;3210;48.708;9.030;2023-03-31T14:42:23;10.80;18.30
6355;DHT22;3210;48.708;9.030;2023-03-31T14:44:55;10.90;17.70
6355;DHT22;3210;48.708;9.030;2023-03-31T14:47:23;11.10;16.90
6355;DHT22;3210;48.708;9.030;2023-03-31T14:49:59;10.90;10.20
6355;DHT22;3210;48.708;9.030;2023-03-31T14:52:29;10.90;13.70
6355;DHT22;3210;48.708;9.030;2023-03-31T14:54:59;11.00;18.60
6355;DHT22;3210;48.708;9.030;2023-03-31T14:57:28;11.10;7.50
6355;DHT22;3210;48.708;9.030;2023-03-31T14:59:57;11.10;12.20
6355;DHT22;3210;48.708;9.030;2023-03-31T15:02:30;11.20;10.10
6355;DHT22;3210;48.708;9.030;2023-03-31T15:04:58;11.30;13.80
6355;DHT22;3210;48.708;9.030;2023-03-31T15:07:27;11.40;6.10
6355;DHT22;3210;48.708;9.030;2023-03-31T15:09:53;11.50;3.20
6355;DHT22;3210;48.708;9.030;2023-03-31T15:12:22;11.50;2.70
6355;DHT22;3210;48.708;9.030;2023-03-31T15:14:50;11.40;4.60
6355;DHT22;3210;48.708;9.030;2023-03-31T15:17:20;11.30;1.00
6355;DHT22;3210;48.708;9.030;2023-03-31T15:19:52;11.30;3.20
6355;DHT22;3210;48.708;9.030;2023-03-31T15:22:21;11.30;3.40
6355;DHT22;3210;48.708;9.030;2023-03-31T15:24:49;11.30;1.00
6355;DHT22;3210;48.708;9.030;2023-03-31T15:27:19;11.30;1.00
6355;DHT22;3210;48.708;9.030;2023-03-31T15:29:51;11.20;1.00
6355;DHT22;3210;48.708;9.030;2023-03-31T15:32:23;11.20;1.00
6355;DHT22;3210;48.708;9.030;2023-03-31T15:34:51;11.10;1.00
6355;DHT22;3210;48.708;9.030;2023-03-31T15:37:21;11.10;1.00
6355;DHT22;3210;48.708;9.030;2023-03-31T15:39:48;11.10;1.00
6355;DHT22;3210;48.708;9.030;2023-03-31T15:42:15;11.10;1.00
6355;DHT22;3210;48.708;9.030;2023-03-31T15:44:44;11.00;1.00
6355;DHT22;3210;48.708;9.030;2023-03-31T15:47:16;10.90;1.00
6355;DHT22;3210;48.708;9.030;2023-03-31T15:49:48;10.90;1.00
6355;DHT22;3210;48.708;9.030;2023-03-31T15:52:26;10.90;1.00
6355;DHT22;3210;48.708;9.030;2023-03-31T15:54:54;10.90;1.00
6355;DHT22;3210;48.708;9.030;2023-03-31T15:57:30;10.90;1.00
6355;DHT22;3210;48.708;9.030;2023-03-31T15:59:57;10.90;1.00
6355;DHT22;3210;48.708;9.030;2023-03-31T16:02:30;10.90;1.00
6355;DHT22;3210;48.708;9.030;2023-03-31T16:05:02;10.90;1.00
6355;DHT22;3210;48.708;9.030;2023-03-31T16:07:49;10.80;1.00
6355;DHT22;3210;48.708;9.030;2023-03-31T16:10:18;10.70;1.00
6355;DHT22;3210;48.708;9.030;2023-03-31T16:12:50;10.70;1.00
6355;DHT22;3210;48.708;9.030;2023-03-31T16:15:20;10.80;1.00
6355;DHT22;3210;48.708;9.030;2023-03-31T16:17:51;10.70;1.00
6355;DHT22;3210;48.708;9.030;2023-03-31T16:20:20;10.60;1.00
6355;DHT22;3210;48.708;9.030;2023-03-31T16:22:52;10.40;1.00
6355;DHT22;3210;48.708;9.030;2023-03-31T16:25:23;10.20;1.00
6355;DHT22;3210;48.708;9.030;2023-03-31T16:27:52;10.10;1.00
6355;DHT22;3210;48.708;9.030;2023-03-31T16:30:22;10.10;1.00
6355;DHT22;3210;48.708;9.030;2023-03-31T16:33:04;9.90;1.00
6355;DHT22;3210;48.708;9.030;2023-03-31T16:35:32;9.90;1.00
6355;DHT22;3210;48.708;9.030;2023-03-31T16:38:01;9.50;1.00
6355;DHT22;3210;48.708;9.030;2023-03-31T16:40:28;9.30;7.50
6355;DHT22;3210;48.708;9.030;2023-03-31T16:43:17;9.10;7.70
6355;DHT22;3210;48.708;9.030;2023-03-31T16:45:45;9.10;4.00
6355;DHT22;3210;48.708;9.030;2023-03-31T16:48:14;9.00;13.60
6355;DHT22;3210;48.708;9.030;2023-03-31T16:50:42;9.00;20.50
6355;DHT22;3210;48.708;9.030;2023-03-31T16:53:14;9.00;46.50
6355;DHT22;3210;48.708;9.030;2023-03-31T16:55:41;8.90;56.30
6355;DHT22;3210;48.708;9.030;2023-03-31T16:58:08;9.10;46.00
6355;DHT22;3210;48.708;9.030;2023-03-31T17:00:36;9.10;43.50
6355;DHT22;3210;48.708;9.030;2023-03-31T17:03:05;9.10;43.50
6355;DHT22;3210;48.708;9.030;2023-03-31T17:05:37;9.10;58.20